sensor_id;sensor_type;location;lat;lon;timestamp;pressure;altitude;pressure_sealevel;temperature;humidity
77147;BME280;66121;52.584;9.694;2023-05-02T00:00:25;101248.19;;;10.86;76.70
77147;BME280;66121;52.584;9.694;2023-05-02T00:02:50;101247.38;;;10.86;76.08
77147;BME280;66121;52.584;9.694;2023-05-02T00:05:15;101249.72;;;10.84;76.55
77147;BME280;66121;52.584;9.694;2023-05-02T00:07:41;101253.75;;;10.90;76.03
77147;BME280;66121;52.584;9.694;2023-05-02T00:10:06;101251.19;;;10.78;76.88
77147;BME280;66121;52.584;9.694;2023-05-02T00:12:32;101251.50;;;10.73;76.90
77147;BME280;66121;52.584;9.694;2023-05-02T00:14:58;101256.31;;;10.79;76.84
77147;BME280;66121;52.584;9.694;2023-05-02T00:17:26;101267.50;;;10.86;76.70
77147;BME280;66121;52.584;9.694;2023-05-02T00:19:51;101262.22;;;10.78;77.79
77147;BME280;66121;52.584;9.694;2023-05-02T00:22:16;101257.03;;;10.73;77.13
77147;BME280;66121;52.584;9.694;2023-05-02T00:24:42;101256.06;;;10.62;76.86
77147;BME280;66121;52.584;9.694;2023-05-02T00:27:07;101258.53;;;10.67;77.03
77147;BME280;66121;52.584;9.694;2023-05-02T00:29:32;101254.16;;;10.66;76.39
77147;BME280;66121;52.584;9.694;2023-05-02T00:31:58;101252.31;;;10.73;77.19
77147;BME280;66121;52.584;9.694;2023-05-02T00:34:28;101256.66;;;10.74;77.20
77147;BME280;66121;52.584;9.694;2023-05-02T00:36:53;101254.34;;;10.76;77.06
77147;BME280;66121;52.584;9.694;2023-05-02T00:39:18;101252.31;;;10.73;76.50
77147;BME280;66121;52.584;9.694;2023-05-02T00:41:44;101258.66;;;10.77;77.80
77147;BME280;66121;52.584;9.694;2023-05-02T00:44:09;101260.75;;;10.84;76.42
77147;BME280;66121;52.584;9.694;2023-05-02T00:46:34;101251.19;;;10.78;76.67
77147;BME280;66121;52.584;9.694;2023-05-02T00:49:00;101255.66;;;10.86;77.10
77147;BME280;66121;52.584;9.694;2023-05-02T00:51:26;101260.38;;;10.85;76.53
77147;BME280;66121;52.584;9.694;2023-05-02T00:53:51;101271.72;;;10.80;76.37
77147;BME280;66121;52.584;9.694;2023-05-02T00:56:16;101275.34;;;10.84;76.69
77147;BME280;66121;52.584;9.694;2023-05-02T00:58:42;101268.66;;;10.85;75.79
77147;BME280;66121;52.584;9.694;2023-05-02T01:04:07;101258.00;;;10.84;76.27
77147;BME280;66121;52.584;9.694;2023-05-02T01:09:15;101280.63;;;10.93;76.54
77147;BME280;66121;52.584;9.694;2023-05-02T01:11:51;101271.28;;;11.01;76.19
77147;BME280;66121;52.584;9.694;2023-05-02T01:14:19;101260.81;;;10.87;77.56
77147;BME280;66121;52.584;9.694;2023-05-02T01:16:45;101258.78;;;10.84;77.54
77147;BME280;66121;52.584;9.694;2023-05-02T01:19:21;101268.78;;;10.70;78.37
77147;BME280;66121;52.584;9.694;2023-05-02T01:21:50;101264.19;;;10.77;78.67
77147;BME280;66121;52.584;9.694;2023-05-02T01:24:29;101270.81;;;10.73;78.39
77147;BME280;66121;52.584;9.694;2023-05-02T01:29:37;101278.19;;;10.65;79.64
77147;BME280;66121;52.584;9.694;2023-05-02T01:32:05;101273.47;;;10.66;79.64
77147;BME280;66121;52.584;9.694;2023-05-02T01:34:32;101271.03;;;10.61;79.88
77147;BME280;66121;52.584;9.694;2023-05-02T01:36:59;101268.66;;;10.59;79.96
77147;BME280;66121;52.584;9.694;2023-05-02T01:39:26;101284.19;;;10.71;79.67
77147;BME280;66121;52.584;9.694;2023-05-02T01:41:54;101282.88;;;10.61;79.61
77147;BME280;66121;52.584;9.694;2023-05-02T01:44:21;101276.91;;;10.59;79.89
77147;BME280;66121;52.584;9.694;2023-05-02T01:46:48;101291.34;;;10.49;80.12
77147;BME280;66121;52.584;9.694;2023-05-02T01:49:15;101275.38;;;10.39;80.35
77147;BME280;66121;52.584;9.694;2023-05-02T01:51:44;101296.91;;;10.53;80.39
77147;BME280;66121;52.584;9.694;2023-05-02T01:54:12;101297.88;;;10.41;81.25
77147;BME280;66121;52.584;9.694;2023-05-02T01:56:39;101301.91;;;10.47;81.25
77147;BME280;66121;52.584;9.694;2023-05-02T01:59:10;101310.66;;;10.49;81.56
77147;BME280;66121;52.584;9.694;2023-05-02T02:01:38;101306.91;;;10.61;81.52
77147;BME280;66121;52.584;9.694;2023-05-02T02:04:05;101318.13;;;10.49;82.46
77147;BME280;66121;52.584;9.694;2023-05-02T02:06:31;101313.34;;;10.46;83.19
77147;BME280;66121;52.584;9.694;2023-05-02T02:08:57;101319.34;;;10.51;83.02
77147;BME280;66121;52.584;9.694;2023-05-02T02:11:43;101317.09;;;10.57;82.84
77147;BME280;66121;52.584;9.694;2023-05-02T02:14:21;101330.63;;;10.65;83.08
77147;BME280;66121;52.584;9.694;2023-05-02T02:16:50;101321.00;;;10.56;83.40
77147;BME280;66121;52.584;9.694;2023-05-02T02:19:18;101317.94;;;10.61;83.43
77147;BME280;66121;52.584;9.694;2023-05-02T02:21:46;101313.56;;;10.60;82.92
77147;BME280;66121;52.584;9.694;2023-05-02T02:24:12;101324.00;;;10.70;83.89
77147;BME280;66121;52.584;9.694;2023-05-02T02:26:40;101318.25;;;10.78;83.14
77147;BME280;66121;52.584;9.694;2023-05-02T02:29:06;101322.53;;;10.76;83.90
77147;BME280;66121;52.584;9.694;2023-05-02T02:31:35;101321.59;;;10.91;83.54
77147;BME280;66121;52.584;9.694;2023-05-02T02:34:02;101318.34;;;10.85;83.89
77147;BME280;66121;52.584;9.694;2023-05-02T02:36:41;101333.47;;;10.91;84.00
77147;BME280;66121;52.584;9.694;2023-05-02T02:44:58;101334.06;;;11.04;82.84
77147;BME280;66121;52.584;9.694;2023-05-02T02:47:45;101333.56;;;10.98;83.41
77147;BME280;66121;52.584;9.694;2023-05-02T02:50:41;101337.31;;;10.87;83.74
77147;BME280;66121;52.584;9.694;2023-05-02T02:53:14;101331.13;;;10.93;83.58
77147;BME280;66121;52.584;9.694;2023-05-02T02:55:59;101339.22;;;10.83;84.06
77147;BME280;66121;52.584;9.694;2023-05-02T02:58:42;101343.00;;;10.97;84.28
77147;BME280;66121;52.584;9.694;2023-05-02T03:01:14;101352.47;;;10.96;84.63
77147;BME280;66121;52.584;9.694;2023-05-02T03:03:42;101361.19;;;10.98;84.62
77147;BME280;66121;52.584;9.694;2023-05-02T03:06:08;101360.78;;;11.00;84.46
77147;BME280;66121;52.584;9.694;2023-05-02T03:08:40;101357.31;;;11.03;84.44
77147;BME280;66121;52.584;9.694;2023-05-02T03:11:06;101363.63;;;11.04;84.76
77147;BME280;66121;52.584;9.694;2023-05-02T03:13:32;101363.97;;;11.02;85.17
77147;BME280;66121;52.584;9.694;2023-05-02T03:18:41;101366.75;;;11.02;85.17
77147;BME280;66121;52.584;9.694;2023-05-02T03:21:07;101373.03;;;10.99;85.40
77147;BME280;66121;52.584;9.694;2023-05-02T03:23:32;101360.75;;;10.96;84.15
77147;BME280;66121;52.584;9.694;2023-05-02T03:25:57;101377.84;;;11.06;85.33
77147;BME280;66121;52.584;9.694;2023-05-02T03:28:23;101372.75;;;11.08;84.88
77147;BME280;66121;52.584;9.694;2023-05-02T03:30:48;101369.81;;;10.97;85.44
77147;BME280;66121;52.584;9.694;2023-05-02T03:33:13;101369.88;;;11.00;85.97
77147;BME280;66121;52.584;9.694;2023-05-02T03:35:38;101374.72;;;11.07;84.94
77147;BME280;66121;52.584;9.694;2023-05-02T03:38:04;101375.31;;;11.20;85.05
77147;BME280;66121;52.584;9.694;2023-05-02T03:40:29;101379.59;;;11.14;85.15
77147;BME280;66121;52.584;9.694;2023-05-02T03:42:54;101385.94;;;11.18;85.02
77147;BME280;66121;52.584;9.694;2023-05-02T03:45:20;101382.66;;;11.09;85.49
77147;BME280;66121;52.584;9.694;2023-05-02T03:47:45;101381.66;;;10.97;85.94
77147;BME280;66121;52.584;9.694;2023-05-02T03:50:10;101393.44;;;10.94;86.80
77147;BME280;66121;52.584;9.694;2023-05-02T03:52:36;101391.47;;;10.95;86.96
77147;BME280;66121;52.584;9.694;2023-05-02T03:55:01;101394.94;;;10.88;88.04
77147;BME280;66121;52.584;9.694;2023-05-02T03:57:30;101399.34;;;10.93;88.43
77147;BME280;66121;52.584;9.694;2023-05-02T03:59:55;101399.44;;;10.77;89.25
77147;BME280;66121;52.584;9.694;2023-05-02T04:02:20;101410.13;;;10.79;89.52
77147;BME280;66121;52.584;9.694;2023-05-02T04:04:46;101402.50;;;10.72;89.76
77147;BME280;66121;52.584;9.694;2023-05-02T04:07:11;101417.78;;;10.66;90.58
77147;BME280;66121;52.584;9.694;2023-05-02T04:09:42;101414.59;;;10.64;91.28
77147;BME280;66121;52.584;9.694;2023-05-02T04:12:07;101411.84;;;10.64;90.89
77147;BME280;66121;52.584;9.694;2023-05-02T04:14:33;101415.38;;;10.65;90.69
77147;BME280;66121;52.584;9.694;2023-05-02T04:16:58;101422.88;;;10.64;90.77
77147;BME280;66121;52.584;9.694;2023-05-02T04:19:23;101442.13;;;10.61;91.61
77147;BME280;66121;52.584;9.694;2023-05-02T04:21:48;101426.44;;;10.46;91.42
77147;BME280;66121;52.584;9.694;2023-05-02T04:24:14;101436.38;;;10.50;91.45
77147;BME280;66121;52.584;9.694;2023-05-02T04:26:39;101454.19;;;10.53;90.50
77147;BME280;66121;52.584;9.694;2023-05-02T04:29:05;101453.19;;;10.42;91.76
77147;BME280;66121;52.584;9.694;2023-05-02T04:31:31;101459.28;;;10.51;91.34
77147;BME280;66121;52.584;9.694;2023-05-02T04:33:56;101454.47;;;10.48;91.29
77147;BME280;66121;52.584;9.694;2023-05-02T04:36:23;101463.94;;;10.47;89.74
77147;BME280;66121;52.584;9.694;2023-05-02T04:38:48;101473.34;;;10.46;90.11
77147;BME280;66121;52.584;9.694;2023-05-02T04:41:14;101480.41;;;10.43;90.41
77147;BME280;66121;52.584;9.694;2023-05-02T04:43:39;101487.88;;;10.43;90.13
77147;BME280;66121;52.584;9.694;2023-05-02T04:46:05;101499.03;;;10.50;89.46
77147;BME280;66121;52.584;9.694;2023-05-02T04:48:30;101506.38;;;10.42;89.24
77147;BME280;66121;52.584;9.694;2023-05-02T04:50:55;101501.56;;;10.20;89.98
77147;BME280;66121;52.584;9.694;2023-05-02T04:53:21;101514.84;;;10.14;89.37
77147;BME280;66121;52.584;9.694;2023-05-02T04:55:47;101515.84;;;9.91;88.58
77147;BME280;66121;52.584;9.694;2023-05-02T04:58:13;101535.34;;;9.82;88.83
77147;BME280;66121;52.584;9.694;2023-05-02T05:00:38;101537.84;;;9.71;87.75
77147;BME280;66121;52.584;9.694;2023-05-02T05:03:04;101550.19;;;9.62;88.41
77147;BME280;66121;52.584;9.694;2023-05-02T05:05:30;101559.44;;;9.54;89.14
77147;BME280;66121;52.584;9.694;2023-05-02T05:07:56;101557.28;;;9.47;89.03
77147;BME280;66121;52.584;9.694;2023-05-02T05:10:21;101554.44;;;9.44;88.85
77147;BME280;66121;52.584;9.694;2023-05-02T05:12:46;101565.97;;;9.34;89.02
77147;BME280;66121;52.584;9.694;2023-05-02T05:15:13;101569.97;;;9.36;88.94
77147;BME280;66121;52.584;9.694;2023-05-02T05:17:39;101584.78;;;9.16;87.99
77147;BME280;66121;52.584;9.694;2023-05-02T05:20:05;101584.78;;;8.88;88.33
77147;BME280;66121;52.584;9.694;2023-05-02T05:22:31;101601.78;;;8.78;86.83
77147;BME280;66121;52.584;9.694;2023-05-02T05:24:56;101605.69;;;8.77;87.41
77147;BME280;66121;52.584;9.694;2023-05-02T05:27:21;101602.72;;;8.70;87.75
77147;BME280;66121;52.584;9.694;2023-05-02T05:29:47;101610.88;;;8.67;87.63
77147;BME280;66121;52.584;9.694;2023-05-02T05:32:12;101621.44;;;8.53;87.38
77147;BME280;66121;52.584;9.694;2023-05-02T05:34:38;101612.59;;;8.59;87.29
77147;BME280;66121;52.584;9.694;2023-05-02T05:37:03;101625.19;;;8.72;86.90
77147;BME280;66121;52.584;9.694;2023-05-02T05:39:28;101627.22;;;8.87;86.75
77147;BME280;66121;52.584;9.694;2023-05-02T05:41:54;101621.34;;;8.89;86.60
77147;BME280;66121;52.584;9.694;2023-05-02T05:44:19;101629.22;;;9.02;86.35
77147;BME280;66121;52.584;9.694;2023-05-02T05:46:49;101639.53;;;9.05;85.17
77147;BME280;66121;52.584;9.694;2023-05-02T05:49:15;101633.13;;;9.01;85.01
77147;BME280;66121;52.584;9.694;2023-05-02T05:51:40;101651.91;;;9.12;83.20
77147;BME280;66121;52.584;9.694;2023-05-02T05:54:06;101650.03;;;9.16;82.99
77147;BME280;66121;52.584;9.694;2023-05-02T05:56:31;101648.09;;;9.16;80.26
77147;BME280;66121;52.584;9.694;2023-05-02T05:58:57;101651.22;;;9.02;79.29
77147;BME280;66121;52.584;9.694;2023-05-02T06:01:22;101663.53;;;8.93;80.56
77147;BME280;66121;52.584;9.694;2023-05-02T06:03:47;101660.88;;;9.08;81.35
77147;BME280;66121;52.584;9.694;2023-05-02T06:06:13;101680.25;;;9.00;80.31
77147;BME280;66121;52.584;9.694;2023-05-02T06:08:38;101671.66;;;9.01;79.89
77147;BME280;66121;52.584;9.694;2023-05-02T06:11:07;101686.63;;;8.76;80.03
77147;BME280;66121;52.584;9.694;2023-05-02T06:13:33;101692.25;;;8.80;80.73
77147;BME280;66121;52.584;9.694;2023-05-02T06:16:01;101707.38;;;8.74;80.28
77147;BME280;66121;52.584;9.694;2023-05-02T06:18:27;101703.16;;;8.64;79.69
77147;BME280;66121;52.584;9.694;2023-05-02T06:20:53;101713.34;;;8.64;78.15
77147;BME280;66121;52.584;9.694;2023-05-02T06:23:18;101714.16;;;8.64;79.05
77147;BME280;66121;52.584;9.694;2023-05-02T06:25:44;101715.19;;;8.72;77.98
77147;BME280;66121;52.584;9.694;2023-05-02T06:28:09;101706.94;;;8.72;76.69
77147;BME280;66121;52.584;9.694;2023-05-02T06:30:34;101716.22;;;8.79;77.78
77147;BME280;66121;52.584;9.694;2023-05-02T06:33:03;101719.31;;;8.90;76.61
77147;BME280;66121;52.584;9.694;2023-05-02T06:35:28;101724.31;;;9.00;75.99
77147;BME280;66121;52.584;9.694;2023-05-02T06:37:53;101732.72;;;9.31;77.15
77147;BME280;66121;52.584;9.694;2023-05-02T06:40:19;101739.44;;;9.46;74.75
77147;BME280;66121;52.584;9.694;2023-05-02T06:42:44;101734.72;;;9.19;74.00
77147;BME280;66121;52.584;9.694;2023-05-02T06:45:09;101742.94;;;9.31;74.62
77147;BME280;66121;52.584;9.694;2023-05-02T06:47:35;101740.69;;;9.08;73.64
77147;BME280;66121;52.584;9.694;2023-05-02T06:50:00;101753.63;;;9.20;74.30
77147;BME280;66121;52.584;9.694;2023-05-02T06:52:25;101751.44;;;9.26;74.35
77147;BME280;66121;52.584;9.694;2023-05-02T06:54:51;101750.88;;;9.32;74.74
77147;BME280;66121;52.584;9.694;2023-05-02T06:57:16;101758.94;;;9.53;75.36
77147;BME280;66121;52.584;9.694;2023-05-02T06:59:41;101763.19;;;9.50;74.04
77147;BME280;66121;52.584;9.694;2023-05-02T07:02:07;101760.31;;;9.59;73.23
77147;BME280;66121;52.584;9.694;2023-05-02T07:04:32;101773.91;;;9.80;72.76
77147;BME280;66121;52.584;9.694;2023-05-02T07:06:57;101756.41;;;10.03;72.11
77147;BME280;66121;52.584;9.694;2023-05-02T07:09:23;101766.56;;;9.99;70.79
77147;BME280;66121;52.584;9.694;2023-05-02T07:11:48;101775.59;;;10.00;71.12
77147;BME280;66121;52.584;9.694;2023-05-02T07:14:13;101758.06;;;9.77;70.36
77147;BME280;66121;52.584;9.694;2023-05-02T07:16:39;101779.84;;;10.09;70.28
77147;BME280;66121;52.584;9.694;2023-05-02T07:19:04;101766.50;;;9.84;69.50
77147;BME280;66121;52.584;9.694;2023-05-02T07:21:30;101796.72;;;9.80;69.39
77147;BME280;66121;52.584;9.694;2023-05-02T07:23:56;101789.00;;;9.86;70.10
77147;BME280;66121;52.584;9.694;2023-05-02T07:26:22;101808.00;;;9.75;69.41
77147;BME280;66121;52.584;9.694;2023-05-02T07:28:47;101813.81;;;9.86;69.13
77147;BME280;66121;52.584;9.694;2023-05-02T07:31:12;101801.22;;;10.00;68.00
77147;BME280;66121;52.584;9.694;2023-05-02T07:33:38;101800.59;;;10.19;67.74
77147;BME280;66121;52.584;9.694;2023-05-02T07:36:03;101816.91;;;10.24;67.94
77147;BME280;66121;52.584;9.694;2023-05-02T07:38:29;101823.63;;;10.54;67.63
77147;BME280;66121;52.584;9.694;2023-05-02T07:40:57;101832.94;;;10.34;66.33
77147;BME280;66121;52.584;9.694;2023-05-02T07:43:22;101824.47;;;10.27;66.92
77147;BME280;66121;52.584;9.694;2023-05-02T07:45:48;101845.25;;;9.97;66.49
77147;BME280;66121;52.584;9.694;2023-05-02T07:48:13;101833.88;;;9.98;67.54
77147;BME280;66121;52.584;9.694;2023-05-02T07:50:38;101844.53;;;10.00;65.69
77147;BME280;66121;52.584;9.694;2023-05-02T07:53:04;101850.66;;;9.93;66.16
77147;BME280;66121;52.584;9.694;2023-05-02T07:55:29;101853.47;;;10.09;66.49
77147;BME280;66121;52.584;9.694;2023-05-02T07:57:55;101847.00;;;9.89;66.16
77147;BME280;66121;52.584;9.694;2023-05-02T08:00:20;101848.41;;;9.83;66.79
77147;BME280;66121;52.584;9.694;2023-05-02T08:02:45;101856.72;;;9.71;65.78
77147;BME280;66121;52.584;9.694;2023-05-02T08:05:11;101846.50;;;9.71;66.31
77147;BME280;66121;52.584;9.694;2023-05-02T08:07:37;101851.97;;;9.84;67.51
77147;BME280;66121;52.584;9.694;2023-05-02T08:10:03;101861.75;;;9.81;66.52
77147;BME280;66121;52.584;9.694;2023-05-02T08:12:28;101866.00;;;9.79;66.60
77147;BME280;66121;52.584;9.694;2023-05-02T08:14:53;101870.03;;;9.69;65.49
77147;BME280;66121;52.584;9.694;2023-05-02T08:17:19;101878.28;;;9.81;65.24
77147;BME280;66121;52.584;9.694;2023-05-02T08:19:45;101892.19;;;9.72;64.15
77147;BME280;66121;52.584;9.694;2023-05-02T08:22:10;101893.19;;;9.80;64.55
77147;BME280;66121;52.584;9.694;2023-05-02T08:24:35;101900.00;;;10.10;67.54
77147;BME280;66121;52.584;9.694;2023-05-02T08:27:03;101904.09;;;9.89;64.44
77147;BME280;66121;52.584;9.694;2023-05-02T08:29:29;101894.81;;;9.81;65.48
77147;BME280;66121;52.584;9.694;2023-05-02T08:31:55;101907.03;;;10.08;64.69
77147;BME280;66121;52.584;9.694;2023-05-02T08:34:21;101910.22;;;10.10;64.43
77147;BME280;66121;52.584;9.694;2023-05-02T08:36:46;101916.19;;;9.84;63.93
77147;BME280;66121;52.584;9.694;2023-05-02T08:39:11;101933.53;;;9.85;64.48
77147;BME280;66121;52.584;9.694;2023-05-02T08:41:37;101926.84;;;9.86;64.33
77147;BME280;66121;52.584;9.694;2023-05-02T08:44:02;101932.13;;;9.91;63.82
77147;BME280;66121;52.584;9.694;2023-05-02T08:46:33;101941.53;;;10.02;63.60
77147;BME280;66121;52.584;9.694;2023-05-02T08:49:00;101931.75;;;10.04;63.11
77147;BME280;66121;52.584;9.694;2023-05-02T08:51:26;101942.41;;;10.06;61.53
77147;BME280;66121;52.584;9.694;2023-05-02T08:53:53;101941.09;;;10.55;62.70
77147;BME280;66121;52.584;9.694;2023-05-02T08:56:19;101930.66;;;10.76;62.54
77147;BME280;66121;52.584;9.694;2023-05-02T08:58:45;101936.56;;;10.90;60.39
77147;BME280;66121;52.584;9.694;2023-05-02T09:01:15;101949.91;;;10.88;60.46
77147;BME280;66121;52.584;9.694;2023-05-02T09:03:45;101943.16;;;11.02;58.57
77147;BME280;66121;52.584;9.694;2023-05-02T09:06:15;101951.09;;;11.19;58.06
77147;BME280;66121;52.584;9.694;2023-05-02T09:08:43;101960.53;;;11.18;58.21
77147;BME280;66121;52.584;9.694;2023-05-02T09:11:10;101951.75;;;10.84;58.35
77147;BME280;66121;52.584;9.694;2023-05-02T09:16:10;101963.13;;;11.26;57.71
77147;BME280;66121;52.584;9.694;2023-05-02T09:18:41;101966.34;;;11.28;57.32
77147;BME280;66121;52.584;9.694;2023-05-02T09:21:11;101975.03;;;11.77;57.56
77147;BME280;66121;52.584;9.694;2023-05-02T09:23:42;101963.16;;;11.77;55.40
77147;BME280;66121;52.584;9.694;2023-05-02T09:26:22;101987.44;;;12.18;57.47
77147;BME280;66121;52.584;9.694;2023-05-02T09:28:52;101971.56;;;12.34;55.80
77147;BME280;66121;52.584;9.694;2023-05-02T09:31:19;101977.16;;;12.57;56.73
77147;BME280;66121;52.584;9.694;2023-05-02T09:33:50;101979.28;;;12.44;56.49
77147;BME280;66121;52.584;9.694;2023-05-02T09:36:17;101983.88;;;12.56;54.41
77147;BME280;66121;52.584;9.694;2023-05-02T09:38:46;101986.63;;;12.75;54.46
77147;BME280;66121;52.584;9.694;2023-05-02T09:41:12;101982.25;;;12.74;57.56
77147;BME280;66121;52.584;9.694;2023-05-02T09:43:39;101995.47;;;12.42;54.99
77147;BME280;66121;52.584;9.694;2023-05-02T09:46:09;101993.13;;;12.25;55.37
77147;BME280;66121;52.584;9.694;2023-05-02T09:48:54;102000.84;;;12.54;53.29
77147;BME280;66121;52.584;9.694;2023-05-02T09:51:21;101994.34;;;12.27;54.22
77147;BME280;66121;52.584;9.694;2023-05-02T09:53:47;101995.22;;;12.32;52.84
77147;BME280;66121;52.584;9.694;2023-05-02T09:56:12;102013.34;;;12.29;55.26
77147;BME280;66121;52.584;9.694;2023-05-02T09:58:38;102009.41;;;12.11;52.37
77147;BME280;66121;52.584;9.694;2023-05-02T10:01:03;102014.94;;;12.11;54.75
77147;BME280;66121;52.584;9.694;2023-05-02T10:03:29;102008.16;;;12.43;54.31
77147;BME280;66121;52.584;9.694;2023-05-02T10:05:56;102018.84;;;12.45;51.83
77147;BME280;66121;52.584;9.694;2023-05-02T10:08:24;102028.72;;;12.26;53.91
77147;BME280;66121;52.584;9.694;2023-05-02T10:10:56;102020.09;;;12.47;52.92
77147;BME280;66121;52.584;9.694;2023-05-02T10:13:23;102023.00;;;12.73;52.50
77147;BME280;66121;52.584;9.694;2023-05-02T10:15:59;102038.44;;;12.74;51.00
77147;BME280;66121;52.584;9.694;2023-05-02T10:18:27;102032.75;;;13.06;52.10
77147;BME280;66121;52.584;9.694;2023-05-02T10:20:57;102038.56;;;13.20;52.01
77147;BME280;66121;52.584;9.694;2023-05-02T10:23:29;102031.91;;;13.24;50.36
77147;BME280;66121;52.584;9.694;2023-05-02T10:25:56;102039.50;;;13.27;50.12
77147;BME280;66121;52.584;9.694;2023-05-02T10:28:22;102039.13;;;13.29;50.30
77147;BME280;66121;52.584;9.694;2023-05-02T10:30:49;102040.81;;;13.33;46.63
77147;BME280;66121;52.584;9.694;2023-05-02T10:33:16;102047.72;;;13.66;47.10
77147;BME280;66121;52.584;9.694;2023-05-02T10:35:43;102049.19;;;14.35;47.59
77147;BME280;66121;52.584;9.694;2023-05-02T10:38:11;102047.03;;;15.17;48.37
77147;BME280;66121;52.584;9.694;2023-05-02T10:40:38;102046.97;;;15.98;46.61
77147;BME280;66121;52.584;9.694;2023-05-02T10:43:04;102037.88;;;16.04;43.24
77147;BME280;66121;52.584;9.694;2023-05-02T10:45:32;102040.28;;;16.06;42.74
77147;BME280;66121;52.584;9.694;2023-05-02T10:48:23;102051.69;;;14.17;45.04
77147;BME280;66121;52.584;9.694;2023-05-02T10:50:58;102043.38;;;13.91;44.29
77147;BME280;66121;52.584;9.694;2023-05-02T10:53:32;102052.66;;;14.02;45.03
77147;BME280;66121;52.584;9.694;2023-05-02T10:58:38;102052.84;;;15.42;43.30
77147;BME280;66121;52.584;9.694;2023-05-02T11:04:07;102045.88;;;15.59;44.59
77147;BME280;66121;52.584;9.694;2023-05-02T11:06:35;102055.41;;;16.05;44.08
77147;BME280;66121;52.584;9.694;2023-05-02T11:11:43;102055.75;;;16.61;41.20
77147;BME280;66121;52.584;9.694;2023-05-02T11:14:10;102063.19;;;16.43;41.25
77147;BME280;66121;52.584;9.694;2023-05-02T11:17:14;102066.63;;;16.19;42.03
77147;BME280;66121;52.584;9.694;2023-05-02T11:24:43;102067.34;;;14.58;45.68
77147;BME280;66121;52.584;9.694;2023-05-02T11:29:57;102067.53;;;13.90;44.88
77147;BME280;66121;52.584;9.694;2023-05-02T11:32:23;102075.16;;;13.29;46.03
77147;BME280;66121;52.584;9.694;2023-05-02T11:34:50;102076.66;;;13.04;47.93
77147;BME280;66121;52.584;9.694;2023-05-02T11:37:17;102076.19;;;13.02;48.55
77147;BME280;66121;52.584;9.694;2023-05-02T11:39:43;102086.28;;;14.23;49.04
77147;BME280;66121;52.584;9.694;2023-05-02T11:42:08;102078.59;;;15.72;47.36
77147;BME280;66121;52.584;9.694;2023-05-02T11:44:54;102076.59;;;14.96;46.43
77147;BME280;66121;52.584;9.694;2023-05-02T11:47:19;102075.66;;;15.18;46.31
77147;BME280;66121;52.584;9.694;2023-05-02T11:49:45;102087.25;;;14.94;45.26
77147;BME280;66121;52.584;9.694;2023-05-02T11:52:10;102089.22;;;14.34;48.02
77147;BME280;66121;52.584;9.694;2023-05-02T11:54:35;102094.38;;;14.09;47.43
77147;BME280;66121;52.584;9.694;2023-05-02T11:57:01;102086.25;;;13.29;48.26
77147;BME280;66121;52.584;9.694;2023-05-02T11:59:26;102099.53;;;12.81;48.76
77147;BME280;66121;52.584;9.694;2023-05-02T12:01:52;102098.09;;;13.07;50.13
77147;BME280;66121;52.584;9.694;2023-05-02T12:04:19;102109.75;;;13.35;49.03
77147;BME280;66121;52.584;9.694;2023-05-02T12:06:57;102110.50;;;13.54;47.81
77147;BME280;66121;52.584;9.694;2023-05-02T12:09:22;102108.78;;;13.69;48.75
77147;BME280;66121;52.584;9.694;2023-05-02T12:11:52;102105.50;;;13.64;47.07
77147;BME280;66121;52.584;9.694;2023-05-02T12:14:28;102113.69;;;14.02;45.93
77147;BME280;66121;52.584;9.694;2023-05-02T12:16:55;102114.94;;;15.50;44.28
77147;BME280;66121;52.584;9.694;2023-05-02T12:19:20;102110.19;;;15.94;42.21
77147;BME280;66121;52.584;9.694;2023-05-02T12:21:46;102108.16;;;16.45;42.43
77147;BME280;66121;52.584;9.694;2023-05-02T12:24:13;102102.81;;;14.98;45.99
77147;BME280;66121;52.584;9.694;2023-05-02T12:26:39;102119.59;;;15.05;46.28
77147;BME280;66121;52.584;9.694;2023-05-02T12:29:04;102111.59;;;14.41;45.19
77147;BME280;66121;52.584;9.694;2023-05-02T12:31:32;102117.38;;;14.32;46.46
77147;BME280;66121;52.584;9.694;2023-05-02T12:33:58;102111.25;;;13.97;47.73
77147;BME280;66121;52.584;9.694;2023-05-02T12:36:25;102109.91;;;13.87;45.14
77147;BME280;66121;52.584;9.694;2023-05-02T12:38:56;102121.97;;;15.07;46.54
77147;BME280;66121;52.584;9.694;2023-05-02T12:41:36;102122.38;;;14.75;43.62
77147;BME280;66121;52.584;9.694;2023-05-02T12:44:03;102127.16;;;14.49;45.16
77147;BME280;66121;52.584;9.694;2023-05-02T12:46:28;102128.09;;;15.19;47.32
77147;BME280;66121;52.584;9.694;2023-05-02T12:49:05;102137.91;;;14.50;45.71
77147;BME280;66121;52.584;9.694;2023-05-02T12:51:37;102137.31;;;14.38;45.88
77147;BME280;66121;52.584;9.694;2023-05-02T12:54:03;102125.84;;;13.94;44.68
77147;BME280;66121;52.584;9.694;2023-05-02T12:56:29;102134.03;;;13.83;46.99
77147;BME280;66121;52.584;9.694;2023-05-02T12:58:58;102122.41;;;13.55;46.68
77147;BME280;66121;52.584;9.694;2023-05-02T13:01:25;102146.06;;;13.49;47.26
77147;BME280;66121;52.584;9.694;2023-05-02T13:03:51;102158.38;;;13.51;49.14
77147;BME280;66121;52.584;9.694;2023-05-02T13:06:16;102158.41;;;13.32;49.50
77147;BME280;66121;52.584;9.694;2023-05-02T13:08:42;102157.09;;;13.45;45.77
77147;BME280;66121;52.584;9.694;2023-05-02T13:11:08;102145.50;;;13.21;46.27
77147;BME280;66121;52.584;9.694;2023-05-02T13:13:33;102151.25;;;13.50;45.14
77147;BME280;66121;52.584;9.694;2023-05-02T13:15:59;102158.97;;;13.41;46.06
77147;BME280;66121;52.584;9.694;2023-05-02T13:18:25;102152.25;;;13.04;48.49
77147;BME280;66121;52.584;9.694;2023-05-02T13:20:52;102156.41;;;12.75;48.96
77147;BME280;66121;52.584;9.694;2023-05-02T13:23:17;102161.00;;;12.87;49.38
77147;BME280;66121;52.584;9.694;2023-05-02T13:25:42;102148.88;;;12.76;51.71
77147;BME280;66121;52.584;9.694;2023-05-02T13:28:08;102158.53;;;13.01;52.19